Pagrindinis puslapis
METAR-TAF:

METAR-TAF

Oro uostai :

Bizerte, Tunisas

platuma: 37-15N, ilguma: 009-48E, Aukštis: 5 m

Dabartinis oras

Ataskaita buvo paskelbta 1 valandą ir 14 minutes, ne 20:00 UTC
Vėjas 6 kt iš Vakarų
Temperatūra 12°C
Drėgmė 88%
Slėgis 1025 hPa
Matomumas 10 km arba daugiau
Mažai debesys ne aukštis 2000 ft

METAR: DTTB 272000Z 26006KT 9999 FEW020 12/10 Q1025

Laikas: 22:14 (21:14 UTC)

Prognozė

Ataskaita buvo paskelbta 3 valandos ir 14 minutes, ne 18:00 UTC
Prognozė galioja nuo 27 metu 19 UTC su 28 metu 04 UTC
Vėjas 5 kt iš Pietvakarių
Matomumas 10 km arba daugiau
Išsisklaidę debesys ne aukštis 2000 ft
Tikimybė 30% :
Laikinai
nuo 28 metu 02 UTC su 28 metu 04 UTC
Matomumas: 4000 m
rūkana

TAF: DTTB 271800Z 2719/2804 23005KT 9999 SCT020 PROB30 TEMPO 2802/2804 4000 BR

Orai ataskaitas ir orų prognozės (METAR, TAF).

turimą stotys yra geltonos ir raudonos taškus žemėlapyje.

Perkelti pele per norėdami pamatyti stoties vardą.

Tada spustelėkite, norėdami matyti oro stebėjimo ir prognozės.

Norėdami pakeisti žemėlapį: spustelėkite ant žalios mygtukų su juodo kryžiaus žemyn,; žalią mygtuką su brūkšneliu, jei norite nutolinti; arba žalių rodyklių gretimoms žemėlapius.


METAR-TAF: